Farmersville's Hourly Summary for Friday, May 11, 2018
Hour Temp
(f)
RH
(%)
Solar Rad.
(MJ/m2)
Rainfall
(in)
Wind
(mph)
5/11/2018 12:00 AM 72 63 0 0 3.43
5/11/2018 1:00 AM 72 64 0 0 4.5
5/11/2018 2:00 AM 71 68 0 0 4.6
5/11/2018 3:00 AM 71 69 0 0 5.88
5/11/2018 4:00 AM 70 72 0 0 5
5/11/2018 5:00 AM 68 76 0 0 4.38
5/11/2018 6:00 AM 67 82 0 0 3.77
5/11/2018 7:00 AM 67 85 0.02 0 5.23
5/11/2018 8:00 AM 68 84 0.22 0 4.6
5/11/2018 9:00 AM 70 77 0.95 0 5.7
5/11/2018 10:00 AM 72 72 0.78 0 7.83
5/11/2018 11:00 AM 75 63 2.12 0 7.93
5/11/2018 12:00 PM 78 60 2.04 0 8.51
5/11/2018 1:00 PM 79 55 2.11 0 7.95
5/11/2018 2:00 PM 81 53 2.22 0 7.68
5/11/2018 3:00 PM 82 50 2.39 0 7.88
5/11/2018 4:00 PM 84 46 2.77 0 8.29
5/11/2018 5:00 PM 85 46 2.05 0 7.14
5/11/2018 6:00 PM 84 46 1.53 0 6.72
5/11/2018 7:00 PM 83 47 0.88 0 5.67
5/11/2018 8:00 PM 81 48 0.31 0 4.59
5/11/2018 9:00 PM 78 55 0.01 0 2.25
5/11/2018 10:00 PM 75 61 0 0 2.51
5/11/2018 11:00 PM 74 66 0 0 2.83
Data Summary 75 62 20.40 0.00 5.62